createdAt,value
2023-02-15T00:00:50.276Z,102316.61
2023-02-15T00:03:24.172Z,102305.04
2023-02-15T00:05:57.580Z,102307.08
2023-02-15T00:08:29.911Z,102312.17
2023-02-15T00:11:12.260Z,102313.08
2023-02-15T00:13:43.824Z,102307.37
2023-02-15T00:16:15.930Z,102316.52
2023-02-15T00:18:48.214Z,102310.48
2023-02-15T00:21:20.499Z,102308.30
2023-02-15T00:23:54.333Z,102316.08
2023-02-15T00:26:28.837Z,102309.38
2023-02-15T00:29:03.408Z,102304.64
2023-02-15T00:31:36.429Z,102315.77
2023-02-15T00:34:14.693Z,102308.18
2023-02-15T00:36:49.001Z,102307.97
2023-02-15T00:39:23.076Z,102303.63
2023-02-15T00:41:55.390Z,102298.67
2023-02-15T00:44:29.299Z,102296.14
2023-02-15T00:47:01.263Z,102298.78
2023-02-15T00:49:39.931Z,102300.08
2023-02-15T00:52:14.430Z,102302.02
2023-02-15T00:54:48.844Z,102305.48
2023-02-15T00:57:21.001Z,102299.97
2023-02-15T00:59:54.806Z,102303.58
2023-02-15T01:02:27.226Z,102309.55
2023-02-15T01:04:59.856Z,102305.34
2023-02-15T01:07:36.920Z,102305.09
2023-02-15T01:10:09.879Z,102303.31
2023-02-15T01:12:41.686Z,102299.05
2023-02-15T01:15:14.943Z,102297.33
2023-02-15T01:17:48.509Z,102307.66
2023-02-15T01:20:26.381Z,102300.98
2023-02-15T01:22:59.483Z,102294.45
2023-02-15T01:25:31.388Z,102294.22
2023-02-15T01:28:05.501Z,102282.22
2023-02-15T01:30:37.375Z,102284.47
2023-02-15T01:33:11.740Z,102282.03
2023-02-15T01:35:46.001Z,102276.00
2023-02-15T01:38:38.431Z,102273.87
2023-02-15T01:41:25.449Z,102276.11
2023-02-15T01:44:03.589Z,102272.86
2023-02-15T01:46:39.907Z,102270.24
2023-02-15T01:49:20.077Z,102268.27
2023-02-15T01:51:54.411Z,102264.33
2023-02-15T01:54:32.940Z,102264.72
2023-02-15T01:57:08.952Z,102263.70
2023-02-15T01:59:42.862Z,102250.36
2023-02-15T02:02:18.113Z,102247.05
2023-02-15T02:04:55.278Z,102251.58
2023-02-15T02:07:34.016Z,102244.34
2023-02-15T02:10:07.621Z,102246.91
2023-02-15T02:12:42.540Z,102237.67
2023-02-15T02:15:15.533Z,102249.75
2023-02-15T02:17:57.583Z,102244.47
2023-02-15T02:20:59.449Z,102246.11
2023-02-15T02:23:55.933Z,102244.97
2023-02-15T02:26:49.969Z,102237.80
2023-02-15T02:29:28.330Z,102238.28
2023-02-15T02:32:36.851Z,102237.88
2023-02-15T02:35:32.784Z,102240.70
2023-02-15T02:38:09.039Z,102241.98
2023-02-15T02:40:59.064Z,102244.83
2023-02-15T02:43:39.992Z,102242.39
2023-02-15T02:46:18.723Z,102231.91
2023-02-15T02:48:53.196Z,102237.42
2023-02-15T02:51:26.173Z,102232.00
2023-02-15T02:54:03.117Z,102227.41
2023-02-15T02:56:39.908Z,102230.99
2023-02-15T02:59:27.222Z,102235.82
2023-02-15T03:02:02.972Z,102225.29
2023-02-15T03:04:36.739Z,102218.64
2023-02-15T03:07:12.377Z,102222.80
2023-02-15T03:09:50.436Z,102235.08
2023-02-15T03:12:25.547Z,102230.86
2023-02-15T03:15:00.994Z,102233.86
2023-02-15T03:17:38.125Z,102232.31
2023-02-15T03:20:16.249Z,102230.42
2023-02-15T03:22:55.794Z,102229.40
2023-02-15T03:25:44.705Z,102226.32
2023-02-15T03:28:21.261Z,102229.53
2023-02-15T03:30:54.787Z,102228.80
2023-02-15T03:33:28.204Z,102235.88
2023-02-15T03:36:20.203Z,102229.64
2023-02-15T03:39:02.548Z,102230.50
2023-02-15T03:41:36.490Z,102219.74
2023-02-15T03:44:21.579Z,102223.25
2023-02-15T03:46:57.704Z,102229.15
2023-02-15T03:49:31.279Z,102228.31
2023-02-15T03:52:03.553Z,102233.06
2023-02-15T03:54:47.584Z,102227.39
2023-02-15T03:57:46.502Z,102223.98
2023-02-15T04:00:37.970Z,102220.13
2023-02-15T04:03:26.416Z,102213.75
2023-02-15T04:05:57.032Z,102211.22
2023-02-15T04:08:29.220Z,102208.42
2023-02-15T04:10:59.832Z,102207.15
2023-02-15T04:13:36.676Z,102205.31
2023-02-15T04:16:08.601Z,102203.36
2023-02-15T04:18:59.696Z,102203.53
2023-02-15T04:21:50.365Z,102201.12
2023-02-15T04:24:39.092Z,102195.98
2023-02-15T04:27:10.078Z,102192.05
2023-02-15T04:29:40.610Z,102193.95
2023-02-15T04:32:11.224Z,102188.48
2023-02-15T04:34:41.898Z,102195.69
2023-02-15T04:37:12.595Z,102182.92
2023-02-15T04:39:43.242Z,102187.98
2023-02-15T04:42:13.809Z,102191.00
2023-02-15T04:44:44.807Z,102189.09
2023-02-15T04:47:15.441Z,102184.34
2023-02-15T04:49:46.206Z,102193.70
2023-02-15T04:52:18.797Z,102183.50
2023-02-15T04:54:49.428Z,102172.23
2023-02-15T04:57:19.983Z,102170.56
2023-02-15T04:59:50.579Z,102169.09
2023-02-15T05:02:21.600Z,102175.55
2023-02-15T05:04:52.272Z,102175.19
2023-02-15T05:07:22.848Z,102180.56
2023-02-15T05:09:54.061Z,102189.58
2023-02-15T05:12:24.700Z,102186.81
2023-02-15T05:14:56.665Z,102186.90
2023-02-15T05:17:27.308Z,102183.30
2023-02-15T05:19:57.941Z,102187.16
2023-02-15T05:22:28.564Z,102180.33
2023-02-15T05:25:17.044Z,102194.38
2023-02-15T05:28:05.893Z,102184.84
2023-02-15T05:30:37.317Z,102190.44
2023-02-15T05:33:09.841Z,102190.67
2023-02-15T05:35:40.542Z,102198.41
2023-02-15T05:38:11.301Z,102193.08
2023-02-15T05:40:42.108Z,102185.34
2023-02-15T05:43:12.690Z,102184.00
2023-02-15T05:45:44.749Z,102177.57
2023-02-15T05:48:15.387Z,102184.70
2023-02-15T05:50:46.705Z,102176.88
2023-02-15T05:53:17.323Z,102171.20
2023-02-15T05:55:47.913Z,102164.80
2023-02-15T05:58:18.534Z,102170.79
2023-02-15T06:00:49.486Z,102169.83
2023-02-15T06:03:20.085Z,102162.73
2023-02-15T06:05:50.788Z,102170.13
2023-02-15T06:08:21.768Z,102166.34
2023-02-15T06:10:53.568Z,102159.17
2023-02-15T06:13:24.122Z,102170.30
2023-02-15T06:15:55.570Z,102167.53
2023-02-15T06:18:27.737Z,102167.76
2023-02-15T06:20:58.377Z,102172.63
2023-02-15T06:23:29.142Z,102178.63
2023-02-15T06:25:59.853Z,102174.88
2023-02-15T06:28:30.757Z,102179.80
2023-02-15T06:31:01.528Z,102169.94
2023-02-15T06:33:34.109Z,102161.22
2023-02-15T06:36:05.212Z,102176.66
2023-02-15T06:38:36.035Z,102170.66
2023-02-15T06:41:06.634Z,102179.29
2023-02-15T06:43:37.570Z,102175.08
2023-02-15T06:46:08.857Z,102179.95
2023-02-15T06:48:39.504Z,102181.18
2023-02-15T06:51:10.308Z,102176.58
2023-02-15T06:53:42.452Z,102181.41
2023-02-15T06:56:14.270Z,102177.66
2023-02-15T06:58:47.105Z,102185.43
2023-02-15T07:01:18.435Z,102179.88
2023-02-15T07:03:49.007Z,102166.20
2023-02-15T07:06:19.766Z,102171.77
2023-02-15T07:08:50.568Z,102168.22
2023-02-15T07:11:39.324Z,102172.56
2023-02-15T07:14:09.896Z,102167.95
2023-02-15T07:16:40.710Z,102173.29
2023-02-15T07:19:11.661Z,102168.23
2023-02-15T07:21:42.284Z,102161.79
2023-02-15T07:24:18.901Z,102158.05
2023-02-15T07:26:49.523Z,102154.57
2023-02-15T07:29:20.340Z,102157.11
2023-02-15T07:31:51.082Z,102151.11
2023-02-15T07:34:21.759Z,102151.08
2023-02-15T07:36:55.274Z,102150.81
2023-02-15T07:39:26.338Z,102152.94
2023-02-15T07:41:57.290Z,102146.50
2023-02-15T07:44:27.848Z,102145.85
2023-02-15T07:47:00.843Z,102145.44
2023-02-15T07:49:31.958Z,102135.84
2023-02-15T07:52:04.646Z,102132.98
2023-02-15T07:54:35.304Z,102127.41
2023-02-15T07:57:06.373Z,102122.68
2023-02-15T07:59:36.900Z,102124.90
2023-02-15T08:02:12.160Z,102121.14
2023-02-15T08:04:43.049Z,102128.23
2023-02-15T08:07:14.667Z,102119.96
2023-02-15T08:09:45.220Z,102126.52
2023-02-15T08:12:16.563Z,102128.70
2023-02-15T08:14:47.696Z,102123.34
2023-02-15T08:17:18.284Z,102118.80
2023-02-15T08:19:48.983Z,102113.40
2023-02-15T08:22:19.541Z,102125.84
2023-02-15T08:24:50.293Z,102108.16
2023-02-15T08:27:23.309Z,102107.25
2023-02-15T08:29:55.183Z,102112.03
2023-02-15T08:32:27.200Z,102109.32
2023-02-15T08:34:58.012Z,102108.15
2023-02-15T08:37:28.939Z,102101.25
2023-02-15T08:39:59.545Z,102101.45
2023-02-15T08:42:30.216Z,102097.81
2023-02-15T08:45:00.826Z,102090.02
2023-02-15T08:47:31.513Z,102095.22
2023-02-15T08:50:02.116Z,102088.80
2023-02-15T08:52:44.893Z,102084.11
2023-02-15T08:55:12.176Z,102084.73
2023-02-15T08:57:44.415Z,102076.41
2023-02-15T09:00:16.012Z,102082.97
2023-02-15T09:02:46.574Z,102077.77
2023-02-15T09:05:17.365Z,102089.81
2023-02-15T09:07:50.272Z,102078.98
2023-02-15T09:10:23.746Z,102072.32
2023-02-15T09:12:55.909Z,102062.38
2023-02-15T09:15:29.091Z,102068.36
2023-02-15T09:18:03.726Z,102067.34
2023-02-15T09:20:40.239Z,102068.15
2023-02-15T09:23:21.925Z,102065.31
2023-02-15T09:25:45.910Z,102067.35
2023-02-15T09:28:20.880Z,102072.08
2023-02-15T09:30:54.508Z,102056.00
2023-02-15T09:33:38.012Z,102071.56
2023-02-15T09:36:19.012Z,102067.29
2023-02-15T09:38:54.400Z,102066.80
2023-02-15T09:41:46.376Z,102061.52
2023-02-15T09:44:34.758Z,102063.09
2023-02-15T09:47:18.626Z,102064.34
2023-02-15T09:50:06.653Z,102064.47
2023-02-15T09:52:59.788Z,102060.05
2023-02-15T09:55:38.761Z,102065.25
2023-02-15T09:58:42.917Z,102049.68
2023-02-15T10:01:28.611Z,102045.20
2023-02-15T10:04:22.881Z,102046.97
2023-02-15T10:07:27.418Z,102034.45
2023-02-15T10:10:08.909Z,102033.97
2023-02-15T10:12:51.032Z,102042.67
2023-02-15T10:15:32.187Z,102034.57
2023-02-15T10:18:15.753Z,102033.24
2023-02-15T10:21:05.584Z,102028.75
2023-02-15T10:24:00.935Z,102031.75
2023-02-15T10:26:47.880Z,102018.66
2023-02-15T10:29:43.868Z,102023.69
2023-02-15T10:32:28.223Z,102020.08
2023-02-15T10:35:18.485Z,102008.36
2023-02-15T10:37:56.313Z,102013.11
2023-02-15T10:40:33.213Z,101999.78
2023-02-15T10:43:10.889Z,101996.30
2023-02-15T10:46:04.016Z,101998.47
2023-02-15T10:48:54.743Z,101994.11
2023-02-15T10:51:31.334Z,101997.22
2023-02-15T10:54:15.908Z,101994.06
2023-02-15T10:56:50.304Z,101993.38
2023-02-15T10:59:39.933Z,101987.66
2023-02-15T11:02:19.960Z,101982.39
2023-02-15T11:05:28.525Z,101984.20
2023-02-15T11:08:02.688Z,101980.64
2023-02-15T11:10:44.503Z,101984.38
2023-02-15T11:13:24.272Z,101974.88
2023-02-15T11:16:05.298Z,101962.43
2023-02-15T11:19:01.297Z,101962.89
2023-02-15T11:21:39.306Z,101972.23
2023-02-15T11:24:22.509Z,101970.42
2023-02-15T11:27:06.647Z,101970.19
2023-02-15T11:29:51.654Z,101972.91
2023-02-15T11:32:36.748Z,101964.28
2023-02-15T11:35:15.387Z,101955.91
2023-02-15T11:37:52.627Z,101960.66
2023-02-15T11:40:56.217Z,101959.16
2023-02-15T11:44:04.275Z,101958.11
2023-02-15T11:46:36.460Z,101950.57
2023-02-15T11:49:37.230Z,101941.00
2023-02-15T11:52:12.522Z,101940.33
2023-02-15T11:54:55.355Z,101947.59
2023-02-15T11:57:34.112Z,101933.04
2023-02-15T12:00:16.164Z,101935.48
2023-02-15T12:02:54.660Z,101937.79
2023-02-15T12:05:28.315Z,101931.92
2023-02-15T12:08:09.638Z,101920.73
2023-02-15T12:10:45.731Z,101918.54
2023-02-15T12:13:24.365Z,101924.96
2023-02-15T12:16:01.763Z,101921.23
2023-02-15T12:18:48.400Z,101935.25
2023-02-15T12:21:37.832Z,101925.11
2023-02-15T12:24:31.972Z,101924.87
2023-02-15T12:27:27.527Z,101923.00
2023-02-15T12:30:12.395Z,101910.45
2023-02-15T12:33:04.568Z,101905.39
2023-02-15T12:35:41.049Z,101905.13
2023-02-15T12:38:15.529Z,101892.00
2023-02-15T12:41:03.992Z,101895.66
2023-02-15T12:43:40.639Z,101898.55
2023-02-15T12:46:27.779Z,101890.91
2023-02-15T12:49:21.764Z,101889.33
2023-02-15T12:51:59.423Z,101878.23
2023-02-15T12:54:43.465Z,101879.77
2023-02-15T12:57:32.691Z,101891.83
2023-02-15T13:00:07.968Z,101873.42
2023-02-15T13:02:50.980Z,101871.70
2023-02-15T13:05:39.681Z,101858.01
2023-02-15T13:08:17.290Z,101859.95
2023-02-15T13:11:11.903Z,101858.06
2023-02-15T13:14:03.134Z,101856.61
2023-02-15T13:16:38.812Z,101850.32
2023-02-15T13:19:21.758Z,101847.75
2023-02-15T13:21:57.522Z,101843.28
2023-02-15T13:24:39.299Z,101843.59
2023-02-15T13:27:19.440Z,101845.81
2023-02-15T13:30:02.259Z,101838.80
2023-02-15T13:32:38.738Z,101838.67
2023-02-15T13:35:19.120Z,101829.98
2023-02-15T13:38:23.253Z,101824.00
2023-02-15T13:40:58.482Z,101825.24
2023-02-15T13:43:49.209Z,101827.16
2023-02-15T13:46:36.867Z,101822.53
2023-02-15T13:49:35.862Z,101827.16
2023-02-15T13:52:16.300Z,101822.30
2023-02-15T13:58:12.283Z,101812.11
2023-02-15T14:01:02.679Z,101807.17
2023-02-15T14:03:49.143Z,101812.44
2023-02-15T14:06:44.751Z,101808.92
2023-02-15T14:09:53.576Z,101803.78
2023-02-15T14:12:47.035Z,101803.38
2023-02-15T14:15:31.965Z,101803.21
2023-02-15T14:18:37.912Z,101800.28
2023-02-15T14:21:16.625Z,101798.73
2023-02-15T14:24:12.559Z,101789.65
2023-02-15T14:26:56.003Z,101787.22
2023-02-15T14:29:57.815Z,101777.54
2023-02-15T14:32:37.258Z,101784.12
2023-02-15T14:35:18.016Z,101780.95
2023-02-15T14:38:05.310Z,101781.80
2023-02-15T14:41:04.485Z,101777.02
2023-02-15T14:43:54.882Z,101785.80
2023-02-15T14:46:38.687Z,101793.12
2023-02-15T14:49:32.097Z,101777.70
2023-02-15T14:52:09.813Z,101783.98
2023-02-15T14:54:46.471Z,101779.69
2023-02-15T14:57:21.206Z,101778.73
2023-02-15T15:00:02.698Z,101782.23
2023-02-15T15:02:54.555Z,101777.09
2023-02-15T15:05:37.973Z,101774.98
2023-02-15T15:08:15.647Z,101774.82
2023-02-15T15:10:52.626Z,101785.12
2023-02-15T15:13:38.851Z,101764.06
2023-02-15T15:16:29.748Z,101768.87
2023-02-15T15:19:01.524Z,101762.99
2023-02-15T15:21:54.630Z,101768.36
2023-02-15T15:24:43.479Z,101762.77
2023-02-15T15:27:44.354Z,101763.68
2023-02-15T15:30:26.844Z,101763.91
2023-02-15T15:33:00.624Z,101759.59
2023-02-15T15:35:34.098Z,101756.12
2023-02-15T15:38:33.693Z,101745.97
2023-02-15T15:41:22.317Z,101744.05
2023-02-15T15:44:01.695Z,101734.38
2023-02-15T15:46:47.230Z,101730.66
2023-02-15T15:49:21.520Z,101735.42
2023-02-15T15:51:52.673Z,101729.49
2023-02-15T15:54:26.242Z,101732.80
2023-02-15T15:57:01.266Z,101725.06
2023-02-15T15:59:36.777Z,101717.64
2023-02-15T16:02:09.639Z,101714.45
2023-02-15T16:04:40.193Z,101710.00
2023-02-15T16:07:22.286Z,101713.95
2023-02-15T16:10:05.195Z,101713.44
2023-02-15T16:12:41.509Z,101706.80
2023-02-15T16:15:21.251Z,101709.88
2023-02-15T16:17:56.107Z,101712.88
2023-02-15T16:20:35.568Z,101704.84
2023-02-15T16:23:24.473Z,101706.22
2023-02-15T16:25:59.295Z,101703.72
2023-02-15T16:28:31.366Z,101706.36
2023-02-15T16:31:16.563Z,101697.39
2023-02-15T16:33:47.809Z,101700.28
2023-02-15T16:36:26.621Z,101701.39
2023-02-15T16:39:03.201Z,101691.79
2023-02-15T16:41:33.877Z,101694.98
2023-02-15T16:44:07.335Z,101682.18
2023-02-15T16:46:42.197Z,101679.19
2023-02-15T16:49:27.656Z,101679.70
2023-02-15T16:52:09.865Z,101683.00
2023-02-15T16:54:41.924Z,101671.41
2023-02-15T16:57:24.587Z,101667.42
2023-02-15T16:59:59.758Z,101670.55
2023-02-15T17:02:54.344Z,101669.39
2023-02-15T17:05:19.640Z,101660.38
2023-02-15T17:08:08.399Z,101662.08
2023-02-15T17:10:42.981Z,101661.58
2023-02-15T17:13:15.811Z,101655.55
2023-02-15T17:16:04.986Z,101658.13
2023-02-15T17:18:44.724Z,101645.39
2023-02-15T17:21:20.910Z,101647.05
2023-02-15T17:23:53.956Z,101642.03
2023-02-15T17:26:27.423Z,101643.37
2023-02-15T17:29:01.327Z,101638.36
2023-02-15T17:31:35.196Z,101641.98
2023-02-15T17:34:06.234Z,101645.20
2023-02-15T17:36:36.855Z,101642.24
2023-02-15T17:39:12.231Z,101643.09
2023-02-15T17:41:43.590Z,101633.70
2023-02-15T17:44:15.588Z,101629.78
2023-02-15T17:46:46.433Z,101627.41
2023-02-15T17:49:19.978Z,101637.16
2023-02-15T17:51:50.556Z,101630.69
2023-02-15T17:54:38.877Z,101645.08
2023-02-15T17:57:14.865Z,101641.51
2023-02-15T18:00:04.634Z,101634.34
2023-02-15T18:02:55.138Z,101638.82
2023-02-15T18:05:44.904Z,101638.36
2023-02-15T18:08:36.410Z,101635.17
2023-02-15T18:11:25.253Z,101634.77
2023-02-15T18:13:57.389Z,101627.11
2023-02-15T18:16:33.525Z,101624.23
2023-02-15T18:19:06.357Z,101614.59
2023-02-15T18:21:36.957Z,101615.02
2023-02-15T18:24:09.269Z,101617.97
2023-02-15T18:26:40.551Z,101627.91
2023-02-15T18:29:11.638Z,101618.32
2023-02-15T18:31:43.384Z,101608.97
2023-02-15T18:34:25.533Z,101615.75
2023-02-15T18:36:57.393Z,101612.27
2023-02-15T18:39:44.601Z,101617.62
2023-02-15T18:42:24.605Z,101604.81
2023-02-15T18:44:57.693Z,101618.56
2023-02-15T18:47:28.737Z,101622.19
2023-02-15T18:49:59.524Z,101617.38
2023-02-15T18:52:33.032Z,101625.77
2023-02-15T18:55:08.303Z,101612.11
2023-02-15T18:57:38.897Z,101612.67
2023-02-15T19:00:17.897Z,101609.41
2023-02-15T19:02:49.318Z,101607.74
2023-02-15T19:05:20.211Z,101606.70
2023-02-15T19:07:51.999Z,101599.25
2023-02-15T19:10:28.916Z,101606.07
2023-02-15T19:12:59.876Z,101611.39
2023-02-15T19:15:32.850Z,101595.02
2023-02-15T19:18:03.443Z,101591.71
2023-02-15T19:20:36.969Z,101592.11
2023-02-15T19:23:20.919Z,101589.22
2023-02-15T19:25:52.967Z,101593.19
2023-02-15T19:28:32.698Z,101586.67
2023-02-15T19:31:03.432Z,101584.62
2023-02-15T19:33:34.806Z,101577.11
2023-02-15T19:36:07.593Z,101577.48
2023-02-15T19:38:38.164Z,101572.51
2023-02-15T19:41:12.064Z,101575.34
2023-02-15T19:43:42.763Z,101574.45
2023-02-15T19:46:16.317Z,101573.75
2023-02-15T19:48:48.904Z,101570.00
2023-02-15T19:51:21.023Z,101566.28
2023-02-15T19:53:52.010Z,101565.16
2023-02-15T19:56:24.581Z,101551.61
2023-02-15T19:58:59.491Z,101552.33
2023-02-15T20:01:31.225Z,101549.86
2023-02-15T20:04:03.326Z,101548.02
2023-02-15T20:06:35.610Z,101541.77
2023-02-15T20:09:06.759Z,101540.86
2023-02-15T20:11:37.565Z,101539.91
2023-02-15T20:14:11.176Z,101534.09
2023-02-15T20:16:41.789Z,101543.11
2023-02-15T20:19:13.482Z,101532.95
2023-02-15T20:21:46.809Z,101527.94
2023-02-15T20:24:21.361Z,101529.34
2023-02-15T20:26:52.061Z,101523.50
2023-02-15T20:29:24.265Z,101525.88
2023-02-15T20:31:55.605Z,101527.27
2023-02-15T20:34:27.706Z,101523.01
2023-02-15T20:36:59.009Z,101512.71
2023-02-15T20:39:29.587Z,101513.13
2023-02-15T20:42:00.249Z,101512.69
2023-02-15T20:44:34.692Z,101512.27
2023-02-15T20:47:05.272Z,101502.20
2023-02-15T20:49:38.230Z,101489.55
2023-02-15T20:52:12.276Z,101491.02
2023-02-15T20:54:43.392Z,101497.20
2023-02-15T20:57:14.972Z,101497.69
2023-02-15T20:59:46.278Z,101487.39
2023-02-15T21:02:24.061Z,101486.08
2023-02-15T21:04:56.018Z,101485.67
2023-02-15T21:07:27.774Z,101483.97
2023-02-15T21:10:00.774Z,101473.77
2023-02-15T21:12:31.885Z,101479.08
2023-02-15T21:15:02.529Z,101482.21
2023-02-15T21:17:33.325Z,101471.09
2023-02-15T21:20:04.190Z,101469.62
2023-02-15T21:22:35.052Z,101477.80
2023-02-15T21:25:06.104Z,101473.43
2023-02-15T21:27:38.144Z,101467.60
2023-02-15T21:30:18.755Z,101465.89
2023-02-15T21:32:49.505Z,101463.00
2023-02-15T21:35:25.158Z,101454.99
2023-02-15T21:37:57.368Z,101459.56
2023-02-15T21:40:31.579Z,101445.33
2023-02-15T21:43:20.325Z,101450.11
2023-02-15T21:46:09.306Z,101443.06
2023-02-15T21:48:40.756Z,101456.68
2023-02-15T21:51:30.005Z,101453.69
2023-02-15T21:54:00.615Z,101444.28
2023-02-15T21:56:32.872Z,101441.77
2023-02-15T21:59:03.542Z,101440.15
2023-02-15T22:01:34.452Z,101427.92
2023-02-15T22:04:07.126Z,101425.23
2023-02-15T22:06:39.377Z,101428.01
2023-02-15T22:09:18.892Z,101423.64
2023-02-15T22:11:52.378Z,101420.02
2023-02-15T22:14:44.651Z,101422.63
2023-02-15T22:17:21.504Z,101423.64
2023-02-15T22:19:53.198Z,101419.26
2023-02-15T22:22:26.258Z,101419.70
2023-02-15T22:24:58.996Z,101377.09
2023-02-15T22:27:33.004Z,101405.05
2023-02-15T22:30:04.441Z,101426.61
2023-02-15T22:32:36.910Z,101427.11
2023-02-15T22:35:11.652Z,101427.77
2023-02-15T22:37:42.446Z,101425.21
2023-02-15T22:40:16.163Z,101423.58
2023-02-15T22:42:52.179Z,101421.02
2023-02-15T22:45:25.678Z,101419.63
2023-02-15T22:48:01.669Z,101416.91
2023-02-15T22:50:38.297Z,101413.58
2023-02-15T22:53:11.513Z,101420.45
2023-02-15T22:55:42.097Z,101419.14
2023-02-15T22:58:24.248Z,101414.47
2023-02-15T23:00:58.603Z,101410.77
2023-02-15T23:03:31.606Z,101407.86
2023-02-15T23:06:02.463Z,101409.52
2023-02-15T23:08:33.774Z,101400.56
2023-02-15T23:11:04.810Z,101403.27
2023-02-15T23:13:35.730Z,101393.99
2023-02-15T23:16:08.904Z,101404.76
2023-02-15T23:18:46.778Z,101400.28
2023-02-15T23:21:29.245Z,101407.64
2023-02-15T23:24:02.864Z,101397.98
2023-02-15T23:26:33.863Z,101387.69
2023-02-15T23:29:04.989Z,101399.23
2023-02-15T23:31:38.789Z,101390.88
2023-02-15T23:34:21.226Z,101402.20
2023-02-15T23:36:52.419Z,101392.87
2023-02-15T23:39:43.669Z,101388.88
2023-02-15T23:42:17.228Z,101387.84
2023-02-15T23:44:50.762Z,101381.36
2023-02-15T23:47:48.720Z,101373.42
2023-02-15T23:50:24.616Z,101379.02
2023-02-15T23:52:56.831Z,101378.11
2023-02-15T23:55:31.572Z,101378.66
2023-02-15T23:58:05.607Z,101388.10
